sensor_id;sensor_type;location;lat;lon;timestamp;P1;durP1;ratioP1;P2;durP2;ratioP2
2001;SDS011;1003;48.002;7.788;2023-12-22T00:02:08;3.07;;;1.37;;
2001;SDS011;1003;48.002;7.788;2023-12-22T00:04:35;5.33;;;1.53;;
2001;SDS011;1003;48.002;7.788;2023-12-22T00:07:02;2.17;;;1.37;;
2001;SDS011;1003;48.002;7.788;2023-12-22T00:09:29;3.43;;;1.40;;
2001;SDS011;1003;48.002;7.788;2023-12-22T00:11:56;2.57;;;1.13;;
2001;SDS011;1003;48.002;7.788;2023-12-22T00:14:23;1.67;;;0.90;;
2001;SDS011;1003;48.002;7.788;2023-12-22T00:16:50;2.65;;;1.08;;
2001;SDS011;1003;48.002;7.788;2023-12-22T00:19:18;3.67;;;1.60;;
2001;SDS011;1003;48.002;7.788;2023-12-22T00:21:45;1.33;;;1.00;;
2001;SDS011;1003;48.002;7.788;2023-12-22T00:24:12;4.57;;;1.27;;
2001;SDS011;1003;48.002;7.788;2023-12-22T00:26:39;2.90;;;1.30;;
2001;SDS011;1003;48.002;7.788;2023-12-22T00:29:06;1.90;;;1.00;;
2001;SDS011;1003;48.002;7.788;2023-12-22T00:31:33;2.47;;;0.80;;
2001;SDS011;1003;48.002;7.788;2023-12-22T00:34:00;3.07;;;1.03;;
2001;SDS011;1003;48.002;7.788;2023-12-22T00:36:28;1.07;;;0.70;;
2001;SDS011;1003;48.002;7.788;2023-12-22T00:38:55;2.53;;;0.80;;
2001;SDS011;1003;48.002;7.788;2023-12-22T00:41:22;2.57;;;0.90;;
2001;SDS011;1003;48.002;7.788;2023-12-22T00:43:49;1.67;;;0.73;;
2001;SDS011;1003;48.002;7.788;2023-12-22T00:46:16;1.73;;;0.83;;
2001;SDS011;1003;48.002;7.788;2023-12-22T00:48:44;2.10;;;1.00;;
2001;SDS011;1003;48.002;7.788;2023-12-22T00:51:11;1.30;;;0.87;;
2001;SDS011;1003;48.002;7.788;2023-12-22T00:53:39;2.77;;;1.00;;
2001;SDS011;1003;48.002;7.788;2023-12-22T00:56:06;3.50;;;1.50;;
2001;SDS011;1003;48.002;7.788;2023-12-22T00:58:33;0.93;;;0.77;;
2001;SDS011;1003;48.002;7.788;2023-12-22T01:01:00;3.47;;;1.00;;
2001;SDS011;1003;48.002;7.788;2023-12-22T01:03:27;3.93;;;1.20;;
2001;SDS011;1003;48.002;7.788;2023-12-22T01:05:54;3.17;;;0.90;;
2001;SDS011;1003;48.002;7.788;2023-12-22T01:08:21;3.43;;;1.10;;
2001;SDS011;1003;48.002;7.788;2023-12-22T01:10:49;2.50;;;1.10;;
2001;SDS011;1003;48.002;7.788;2023-12-22T01:13:16;3.07;;;1.00;;
2001;SDS011;1003;48.002;7.788;2023-12-22T01:15:43;2.77;;;1.17;;
2001;SDS011;1003;48.002;7.788;2023-12-22T01:18:10;3.03;;;0.80;;
2001;SDS011;1003;48.002;7.788;2023-12-22T01:20:37;2.53;;;0.87;;
2001;SDS011;1003;48.002;7.788;2023-12-22T01:23:04;3.57;;;1.03;;
2001;SDS011;1003;48.002;7.788;2023-12-22T01:25:31;4.07;;;0.90;;
2001;SDS011;1003;48.002;7.788;2023-12-22T01:27:59;3.13;;;0.80;;
2001;SDS011;1003;48.002;7.788;2023-12-22T01:30:26;2.33;;;0.67;;
2001;SDS011;1003;48.002;7.788;2023-12-22T01:32:52;4.00;;;1.10;;
2001;SDS011;1003;48.002;7.788;2023-12-22T01:35:19;1.73;;;1.07;;
2001;SDS011;1003;48.002;7.788;2023-12-22T01:37:46;2.03;;;0.80;;
2001;SDS011;1003;48.002;7.788;2023-12-22T01:40:14;2.00;;;0.87;;
2001;SDS011;1003;48.002;7.788;2023-12-22T01:42:41;4.63;;;1.23;;
2001;SDS011;1003;48.002;7.788;2023-12-22T01:45:10;1.63;;;0.70;;
2001;SDS011;1003;48.002;7.788;2023-12-22T01:47:37;2.77;;;1.00;;
2001;SDS011;1003;48.002;7.788;2023-12-22T01:50:05;3.40;;;0.90;;
2001;SDS011;1003;48.002;7.788;2023-12-22T01:52:35;3.90;;;0.97;;
2001;SDS011;1003;48.002;7.788;2023-12-22T01:55:03;4.70;;;1.20;;
2001;SDS011;1003;48.002;7.788;2023-12-22T01:57:32;3.90;;;1.10;;
2001;SDS011;1003;48.002;7.788;2023-12-22T02:00:00;2.57;;;1.17;;
2001;SDS011;1003;48.002;7.788;2023-12-22T02:02:30;3.53;;;1.40;;
2001;SDS011;1003;48.002;7.788;2023-12-22T02:04:57;1.50;;;1.13;;
2001;SDS011;1003;48.002;7.788;2023-12-22T02:07:25;1.83;;;1.23;;
2001;SDS011;1003;48.002;7.788;2023-12-22T02:09:54;5.50;;;1.20;;
2001;SDS011;1003;48.002;7.788;2023-12-22T02:12:20;2.73;;;1.13;;
2001;SDS011;1003;48.002;7.788;2023-12-22T02:14:47;3.60;;;1.17;;
2001;SDS011;1003;48.002;7.788;2023-12-22T02:17:15;2.03;;;1.03;;
2001;SDS011;1003;48.002;7.788;2023-12-22T02:19:52;4.27;;;1.27;;
2001;SDS011;1003;48.002;7.788;2023-12-22T02:22:22;5.17;;;1.20;;
2001;SDS011;1003;48.002;7.788;2023-12-22T02:24:50;2.03;;;1.20;;
2001;SDS011;1003;48.002;7.788;2023-12-22T02:27:21;2.57;;;1.23;;
2001;SDS011;1003;48.002;7.788;2023-12-22T02:30:01;4.77;;;1.57;;
2001;SDS011;1003;48.002;7.788;2023-12-22T02:32:35;6.67;;;1.50;;
2001;SDS011;1003;48.002;7.788;2023-12-22T02:35:07;4.30;;;1.07;;
2001;SDS011;1003;48.002;7.788;2023-12-22T02:37:40;2.53;;;1.30;;
2001;SDS011;1003;48.002;7.788;2023-12-22T02:40:09;3.50;;;0.90;;
2001;SDS011;1003;48.002;7.788;2023-12-22T02:42:37;3.80;;;1.00;;
2001;SDS011;1003;48.002;7.788;2023-12-22T02:45:06;1.70;;;1.10;;
2001;SDS011;1003;48.002;7.788;2023-12-22T02:47:40;3.87;;;1.37;;
2001;SDS011;1003;48.002;7.788;2023-12-22T02:50:07;3.37;;;1.17;;
2001;SDS011;1003;48.002;7.788;2023-12-22T02:52:35;4.13;;;1.50;;
2001;SDS011;1003;48.002;7.788;2023-12-22T02:55:02;4.77;;;1.50;;
2001;SDS011;1003;48.002;7.788;2023-12-22T02:57:32;2.63;;;1.57;;
2001;SDS011;1003;48.002;7.788;2023-12-22T02:59:59;3.87;;;1.20;;
2001;SDS011;1003;48.002;7.788;2023-12-22T03:02:26;3.13;;;1.17;;
2001;SDS011;1003;48.002;7.788;2023-12-22T03:04:53;3.10;;;1.30;;
2001;SDS011;1003;48.002;7.788;2023-12-22T03:07:20;4.10;;;1.20;;
2001;SDS011;1003;48.002;7.788;2023-12-22T03:09:46;4.03;;;1.17;;
2001;SDS011;1003;48.002;7.788;2023-12-22T03:12:13;4.93;;;1.17;;
2001;SDS011;1003;48.002;7.788;2023-12-22T03:14:41;2.63;;;1.13;;
2001;SDS011;1003;48.002;7.788;2023-12-22T03:17:08;2.40;;;1.57;;
2001;SDS011;1003;48.002;7.788;2023-12-22T03:19:36;2.20;;;1.17;;
2001;SDS011;1003;48.002;7.788;2023-12-22T03:22:03;4.17;;;1.30;;
2001;SDS011;1003;48.002;7.788;2023-12-22T03:24:30;3.13;;;1.30;;
2001;SDS011;1003;48.002;7.788;2023-12-22T03:26:57;3.23;;;1.23;;
2001;SDS011;1003;48.002;7.788;2023-12-22T03:29:23;7.20;;;1.33;;
2001;SDS011;1003;48.002;7.788;2023-12-22T03:31:52;3.53;;;1.30;;
2001;SDS011;1003;48.002;7.788;2023-12-22T03:34:19;4.33;;;1.23;;
2001;SDS011;1003;48.002;7.788;2023-12-22T03:36:47;2.43;;;1.13;;
2001;SDS011;1003;48.002;7.788;2023-12-22T03:39:14;4.13;;;1.20;;
2001;SDS011;1003;48.002;7.788;2023-12-22T03:41:41;3.13;;;1.30;;
2001;SDS011;1003;48.002;7.788;2023-12-22T03:44:07;2.67;;;1.13;;
2001;SDS011;1003;48.002;7.788;2023-12-22T03:46:34;3.60;;;1.20;;
2001;SDS011;1003;48.002;7.788;2023-12-22T03:49:02;4.10;;;1.17;;
2001;SDS011;1003;48.002;7.788;2023-12-22T03:51:29;3.67;;;1.20;;
2001;SDS011;1003;48.002;7.788;2023-12-22T03:53:56;3.10;;;1.20;;
2001;SDS011;1003;48.002;7.788;2023-12-22T03:56:23;3.53;;;1.23;;
2001;SDS011;1003;48.002;7.788;2023-12-22T03:58:50;4.23;;;1.40;;
2001;SDS011;1003;48.002;7.788;2023-12-22T04:01:17;2.63;;;1.00;;
2001;SDS011;1003;48.002;7.788;2023-12-22T04:03:43;4.47;;;1.17;;
2001;SDS011;1003;48.002;7.788;2023-12-22T04:06:12;4.73;;;1.30;;
2001;SDS011;1003;48.002;7.788;2023-12-22T04:08:39;3.90;;;1.30;;
2001;SDS011;1003;48.002;7.788;2023-12-22T04:11:06;2.70;;;0.90;;
2001;SDS011;1003;48.002;7.788;2023-12-22T04:13:33;2.33;;;1.00;;
2001;SDS011;1003;48.002;7.788;2023-12-22T04:16:00;2.87;;;1.10;;
2001;SDS011;1003;48.002;7.788;2023-12-22T04:18:29;4.50;;;1.40;;
2001;SDS011;1003;48.002;7.788;2023-12-22T04:20:56;4.03;;;2.37;;
2001;SDS011;1003;48.002;7.788;2023-12-22T04:23:25;4.77;;;2.63;;
2001;SDS011;1003;48.002;7.788;2023-12-22T04:25:52;2.33;;;1.93;;
2001;SDS011;1003;48.002;7.788;2023-12-22T04:28:18;2.27;;;1.63;;
2001;SDS011;1003;48.002;7.788;2023-12-22T04:30:45;2.83;;;1.80;;
2001;SDS011;1003;48.002;7.788;2023-12-22T04:33:12;1.87;;;1.10;;
2001;SDS011;1003;48.002;7.788;2023-12-22T04:35:39;4.33;;;1.40;;
2001;SDS011;1003;48.002;7.788;2023-12-22T04:38:06;1.77;;;0.90;;
2001;SDS011;1003;48.002;7.788;2023-12-22T04:40:35;3.00;;;1.10;;
2001;SDS011;1003;48.002;7.788;2023-12-22T04:43:02;2.10;;;1.00;;
2001;SDS011;1003;48.002;7.788;2023-12-22T04:45:29;1.90;;;1.07;;
2001;SDS011;1003;48.002;7.788;2023-12-22T04:47:56;3.07;;;1.13;;
2001;SDS011;1003;48.002;7.788;2023-12-22T04:50:23;7.27;;;1.53;;
2001;SDS011;1003;48.002;7.788;2023-12-22T04:52:50;4.23;;;1.17;;
2001;SDS011;1003;48.002;7.788;2023-12-22T04:55:17;3.10;;;1.20;;
2001;SDS011;1003;48.002;7.788;2023-12-22T04:57:45;3.80;;;1.40;;
2001;SDS011;1003;48.002;7.788;2023-12-22T05:00:12;6.60;;;1.43;;
2001;SDS011;1003;48.002;7.788;2023-12-22T05:02:40;5.17;;;1.73;;
2001;SDS011;1003;48.002;7.788;2023-12-22T05:05:07;3.77;;;1.33;;
2001;SDS011;1003;48.002;7.788;2023-12-22T05:07:34;4.30;;;1.57;;
2001;SDS011;1003;48.002;7.788;2023-12-22T05:10:01;3.33;;;1.57;;
2001;SDS011;1003;48.002;7.788;2023-12-22T05:12:29;2.87;;;1.33;;
2001;SDS011;1003;48.002;7.788;2023-12-22T05:14:57;1.90;;;1.10;;
2001;SDS011;1003;48.002;7.788;2023-12-22T05:17:24;6.03;;;1.47;;
2001;SDS011;1003;48.002;7.788;2023-12-22T05:19:51;4.63;;;1.27;;
2001;SDS011;1003;48.002;7.788;2023-12-22T05:22:18;7.17;;;1.83;;
2001;SDS011;1003;48.002;7.788;2023-12-22T05:24:45;5.40;;;1.70;;
2001;SDS011;1003;48.002;7.788;2023-12-22T05:27:12;4.20;;;1.57;;
2001;SDS011;1003;48.002;7.788;2023-12-22T05:29:39;7.57;;;1.60;;
2001;SDS011;1003;48.002;7.788;2023-12-22T05:32:07;7.93;;;1.60;;
2001;SDS011;1003;48.002;7.788;2023-12-22T05:34:34;5.53;;;1.63;;
2001;SDS011;1003;48.002;7.788;2023-12-22T05:37:02;12.63;;;4.17;;
2001;SDS011;1003;48.002;7.788;2023-12-22T05:39:29;9.57;;;2.77;;
2001;SDS011;1003;48.002;7.788;2023-12-22T05:41:57;14.60;;;5.33;;
2001;SDS011;1003;48.002;7.788;2023-12-22T05:44:24;7.10;;;3.03;;
2001;SDS011;1003;48.002;7.788;2023-12-22T05:46:54;8.13;;;2.40;;
2001;SDS011;1003;48.002;7.788;2023-12-22T05:49:22;5.07;;;1.93;;
2001;SDS011;1003;48.002;7.788;2023-12-22T05:51:50;6.93;;;2.13;;
2001;SDS011;1003;48.002;7.788;2023-12-22T05:54:17;7.27;;;1.80;;
2001;SDS011;1003;48.002;7.788;2023-12-22T05:56:45;8.87;;;2.10;;
2001;SDS011;1003;48.002;7.788;2023-12-22T05:59:12;5.90;;;1.80;;
2001;SDS011;1003;48.002;7.788;2023-12-22T06:01:39;4.97;;;2.10;;
2001;SDS011;1003;48.002;7.788;2023-12-22T06:04:06;7.90;;;2.50;;
2001;SDS011;1003;48.002;7.788;2023-12-22T06:06:35;8.50;;;1.90;;
2001;SDS011;1003;48.002;7.788;2023-12-22T06:09:03;7.37;;;2.20;;
2001;SDS011;1003;48.002;7.788;2023-12-22T06:11:30;5.27;;;2.00;;
2001;SDS011;1003;48.002;7.788;2023-12-22T06:13:57;7.97;;;2.70;;
2001;SDS011;1003;48.002;7.788;2023-12-22T06:16:24;8.20;;;2.00;;
2001;SDS011;1003;48.002;7.788;2023-12-22T06:18:51;6.60;;;2.10;;
2001;SDS011;1003;48.002;7.788;2023-12-22T06:21:17;9.00;;;2.30;;
2001;SDS011;1003;48.002;7.788;2023-12-22T06:23:46;7.07;;;2.97;;
2001;SDS011;1003;48.002;7.788;2023-12-22T06:26:13;9.50;;;4.07;;
2001;SDS011;1003;48.002;7.788;2023-12-22T06:28:40;9.13;;;3.23;;
2001;SDS011;1003;48.002;7.788;2023-12-22T06:31:07;13.83;;;3.10;;
2001;SDS011;1003;48.002;7.788;2023-12-22T06:33:34;7.03;;;2.30;;
2001;SDS011;1003;48.002;7.788;2023-12-22T06:36:01;9.80;;;2.27;;
2001;SDS011;1003;48.002;7.788;2023-12-22T06:38:28;10.90;;;2.30;;
2001;SDS011;1003;48.002;7.788;2023-12-22T06:40:58;3.90;;;1.87;;
2001;SDS011;1003;48.002;7.788;2023-12-22T06:43:25;7.80;;;2.30;;
2001;SDS011;1003;48.002;7.788;2023-12-22T06:45:52;8.47;;;2.10;;
2001;SDS011;1003;48.002;7.788;2023-12-22T06:48:20;13.37;;;2.60;;
2001;SDS011;1003;48.002;7.788;2023-12-22T06:50:47;6.63;;;1.93;;
2001;SDS011;1003;48.002;7.788;2023-12-22T06:53:14;11.60;;;2.50;;
2001;SDS011;1003;48.002;7.788;2023-12-22T06:55:40;8.93;;;2.47;;
2001;SDS011;1003;48.002;7.788;2023-12-22T06:58:09;5.50;;;1.90;;
2001;SDS011;1003;48.002;7.788;2023-12-22T07:00:36;5.23;;;2.00;;
2001;SDS011;1003;48.002;7.788;2023-12-22T07:03:03;6.00;;;1.97;;
2001;SDS011;1003;48.002;7.788;2023-12-22T07:05:33;5.30;;;1.83;;
2001;SDS011;1003;48.002;7.788;2023-12-22T07:08:04;7.63;;;2.33;;
2001;SDS011;1003;48.002;7.788;2023-12-22T07:10:32;9.63;;;2.13;;
2001;SDS011;1003;48.002;7.788;2023-12-22T07:12:59;5.27;;;2.00;;
2001;SDS011;1003;48.002;7.788;2023-12-22T07:15:27;7.70;;;2.20;;
2001;SDS011;1003;48.002;7.788;2023-12-22T07:17:54;7.17;;;2.10;;
2001;SDS011;1003;48.002;7.788;2023-12-22T07:20:21;8.30;;;2.30;;
2001;SDS011;1003;48.002;7.788;2023-12-22T07:22:48;7.17;;;2.30;;
2001;SDS011;1003;48.002;7.788;2023-12-22T07:25:16;6.80;;;2.03;;
2001;SDS011;1003;48.002;7.788;2023-12-22T07:27:44;4.97;;;2.10;;
2001;SDS011;1003;48.002;7.788;2023-12-22T07:30:12;9.00;;;2.40;;
2001;SDS011;1003;48.002;7.788;2023-12-22T07:32:44;7.80;;;2.33;;
2001;SDS011;1003;48.002;7.788;2023-12-22T07:35:17;6.67;;;1.97;;
2001;SDS011;1003;48.002;7.788;2023-12-22T07:37:44;7.87;;;2.40;;
2001;SDS011;1003;48.002;7.788;2023-12-22T07:40:11;9.20;;;3.10;;
2001;SDS011;1003;48.002;7.788;2023-12-22T07:42:38;9.20;;;3.17;;
2001;SDS011;1003;48.002;7.788;2023-12-22T07:45:05;7.20;;;3.30;;
2001;SDS011;1003;48.002;7.788;2023-12-22T07:47:34;10.03;;;4.47;;
2001;SDS011;1003;48.002;7.788;2023-12-22T07:50:03;10.47;;;3.63;;
2001;SDS011;1003;48.002;7.788;2023-12-22T07:52:33;7.93;;;2.33;;
2001;SDS011;1003;48.002;7.788;2023-12-22T07:55:03;8.27;;;2.17;;
2001;SDS011;1003;48.002;7.788;2023-12-22T07:57:32;7.30;;;2.40;;
2001;SDS011;1003;48.002;7.788;2023-12-22T07:59:59;6.23;;;2.13;;
2001;SDS011;1003;48.002;7.788;2023-12-22T08:02:26;10.90;;;2.40;;
2001;SDS011;1003;48.002;7.788;2023-12-22T08:04:53;8.83;;;2.20;;
2001;SDS011;1003;48.002;7.788;2023-12-22T08:07:21;6.67;;;2.07;;
2001;SDS011;1003;48.002;7.788;2023-12-22T08:09:48;6.33;;;2.37;;
2001;SDS011;1003;48.002;7.788;2023-12-22T08:12:15;7.43;;;1.97;;
2001;SDS011;1003;48.002;7.788;2023-12-22T08:14:42;11.20;;;2.43;;
2001;SDS011;1003;48.002;7.788;2023-12-22T08:17:09;7.93;;;2.47;;
2001;SDS011;1003;48.002;7.788;2023-12-22T08:19:38;9.33;;;2.07;;
2001;SDS011;1003;48.002;7.788;2023-12-22T08:22:07;9.47;;;2.30;;
2001;SDS011;1003;48.002;7.788;2023-12-22T08:24:36;10.27;;;3.13;;
2001;SDS011;1003;48.002;7.788;2023-12-22T08:27:04;8.53;;;2.43;;
2001;SDS011;1003;48.002;7.788;2023-12-22T08:29:31;8.73;;;2.27;;
2001;SDS011;1003;48.002;7.788;2023-12-22T08:31:58;7.10;;;2.03;;
2001;SDS011;1003;48.002;7.788;2023-12-22T08:34:26;6.80;;;2.20;;
2001;SDS011;1003;48.002;7.788;2023-12-22T08:36:53;5.90;;;2.40;;
2001;SDS011;1003;48.002;7.788;2023-12-22T08:39:20;6.60;;;2.27;;
2001;SDS011;1003;48.002;7.788;2023-12-22T08:41:50;7.43;;;2.70;;
2001;SDS011;1003;48.002;7.788;2023-12-22T08:44:18;11.00;;;2.60;;
2001;SDS011;1003;48.002;7.788;2023-12-22T08:46:45;8.57;;;2.40;;
2001;SDS011;1003;48.002;7.788;2023-12-22T08:49:12;6.90;;;1.73;;
2001;SDS011;1003;48.002;7.788;2023-12-22T08:51:39;8.30;;;2.17;;
2001;SDS011;1003;48.002;7.788;2023-12-22T08:54:06;9.33;;;2.37;;
2001;SDS011;1003;48.002;7.788;2023-12-22T08:56:33;10.03;;;2.50;;
2001;SDS011;1003;48.002;7.788;2023-12-22T08:59:02;8.07;;;2.00;;
2001;SDS011;1003;48.002;7.788;2023-12-22T09:01:29;7.27;;;2.10;;
2001;SDS011;1003;48.002;7.788;2023-12-22T09:03:57;9.33;;;2.10;;
2001;SDS011;1003;48.002;7.788;2023-12-22T09:06:24;5.77;;;1.83;;
2001;SDS011;1003;48.002;7.788;2023-12-22T09:08:51;6.20;;;2.07;;
2001;SDS011;1003;48.002;7.788;2023-12-22T09:11:19;6.70;;;2.30;;
2001;SDS011;1003;48.002;7.788;2023-12-22T09:13:47;7.00;;;2.17;;
2001;SDS011;1003;48.002;7.788;2023-12-22T09:16:16;9.17;;;2.57;;
2001;SDS011;1003;48.002;7.788;2023-12-22T09:18:48;7.30;;;2.40;;
2001;SDS011;1003;48.002;7.788;2023-12-22T09:21:16;6.33;;;2.00;;
2001;SDS011;1003;48.002;7.788;2023-12-22T09:23:43;7.20;;;2.07;;
2001;SDS011;1003;48.002;7.788;2023-12-22T09:26:11;7.30;;;2.73;;
2001;SDS011;1003;48.002;7.788;2023-12-22T09:28:38;5.20;;;1.97;;
2001;SDS011;1003;48.002;7.788;2023-12-22T09:31:06;7.60;;;2.00;;
2001;SDS011;1003;48.002;7.788;2023-12-22T09:33:34;6.77;;;1.93;;
2001;SDS011;1003;48.002;7.788;2023-12-22T09:36:02;5.90;;;2.03;;
2001;SDS011;1003;48.002;7.788;2023-12-22T09:38:30;7.47;;;2.10;;
2001;SDS011;1003;48.002;7.788;2023-12-22T09:40:57;8.33;;;2.30;;
2001;SDS011;1003;48.002;7.788;2023-12-22T09:43:26;8.57;;;2.20;;
2001;SDS011;1003;48.002;7.788;2023-12-22T09:45:53;9.87;;;2.37;;
2001;SDS011;1003;48.002;7.788;2023-12-22T09:48:21;6.40;;;2.10;;
2001;SDS011;1003;48.002;7.788;2023-12-22T09:50:53;9.33;;;2.00;;
2001;SDS011;1003;48.002;7.788;2023-12-22T09:53:21;6.27;;;2.20;;
2001;SDS011;1003;48.002;7.788;2023-12-22T09:55:54;8.27;;;2.10;;
2001;SDS011;1003;48.002;7.788;2023-12-22T09:58:27;8.30;;;2.30;;
2001;SDS011;1003;48.002;7.788;2023-12-22T10:00:54;6.77;;;2.23;;
2001;SDS011;1003;48.002;7.788;2023-12-22T10:03:22;6.80;;;2.23;;
2001;SDS011;1003;48.002;7.788;2023-12-22T10:05:53;5.63;;;2.03;;
2001;SDS011;1003;48.002;7.788;2023-12-22T10:08:20;8.13;;;2.27;;
2001;SDS011;1003;48.002;7.788;2023-12-22T10:10:48;3.60;;;1.93;;
2001;SDS011;1003;48.002;7.788;2023-12-22T10:13:17;7.23;;;1.87;;
2001;SDS011;1003;48.002;7.788;2023-12-22T10:15:45;5.83;;;2.10;;
2001;SDS011;1003;48.002;7.788;2023-12-22T10:18:13;5.30;;;1.87;;
2001;SDS011;1003;48.002;7.788;2023-12-22T10:20:41;5.30;;;1.60;;
2001;SDS011;1003;48.002;7.788;2023-12-22T10:23:12;7.00;;;1.90;;
2001;SDS011;1003;48.002;7.788;2023-12-22T10:25:39;4.67;;;1.70;;
2001;SDS011;1003;48.002;7.788;2023-12-22T10:28:09;3.03;;;1.73;;
2001;SDS011;1003;48.002;7.788;2023-12-22T10:30:39;10.13;;;1.63;;
2001;SDS011;1003;48.002;7.788;2023-12-22T10:33:06;7.47;;;2.00;;
2001;SDS011;1003;48.002;7.788;2023-12-22T10:35:34;5.17;;;1.87;;
2001;SDS011;1003;48.002;7.788;2023-12-22T10:38:00;6.70;;;1.90;;
2001;SDS011;1003;48.002;7.788;2023-12-22T10:40:31;5.77;;;1.60;;
2001;SDS011;1003;48.002;7.788;2023-12-22T10:42:58;6.40;;;2.00;;
2001;SDS011;1003;48.002;7.788;2023-12-22T10:45:26;5.90;;;1.77;;
2001;SDS011;1003;48.002;7.788;2023-12-22T10:47:55;5.37;;;1.80;;
2001;SDS011;1003;48.002;7.788;2023-12-22T10:50:24;4.13;;;2.03;;
2001;SDS011;1003;48.002;7.788;2023-12-22T10:52:51;6.50;;;2.00;;
2001;SDS011;1003;48.002;7.788;2023-12-22T10:55:19;4.67;;;1.73;;
2001;SDS011;1003;48.002;7.788;2023-12-22T10:57:47;5.83;;;1.90;;
2001;SDS011;1003;48.002;7.788;2023-12-22T11:00:15;8.70;;;1.90;;
2001;SDS011;1003;48.002;7.788;2023-12-22T11:02:47;4.93;;;1.70;;
2001;SDS011;1003;48.002;7.788;2023-12-22T11:05:15;6.23;;;1.80;;
2001;SDS011;1003;48.002;7.788;2023-12-22T11:07:48;2.80;;;1.80;;
2001;SDS011;1003;48.002;7.788;2023-12-22T11:10:17;7.60;;;1.93;;
2001;SDS011;1003;48.002;7.788;2023-12-22T11:12:49;4.17;;;1.50;;
2001;SDS011;1003;48.002;7.788;2023-12-22T11:15:18;3.30;;;1.20;;
2001;SDS011;1003;48.002;7.788;2023-12-22T11:17:47;3.73;;;1.70;;
2001;SDS011;1003;48.002;7.788;2023-12-22T11:20:17;8.20;;;1.60;;
2001;SDS011;1003;48.002;7.788;2023-12-22T11:22:45;5.10;;;1.60;;
2001;SDS011;1003;48.002;7.788;2023-12-22T11:25:15;4.30;;;1.57;;
2001;SDS011;1003;48.002;7.788;2023-12-22T11:27:45;3.97;;;1.67;;
2001;SDS011;1003;48.002;7.788;2023-12-22T11:30:18;5.03;;;1.80;;
2001;SDS011;1003;48.002;7.788;2023-12-22T11:32:47;1.73;;;1.30;;
2001;SDS011;1003;48.002;7.788;2023-12-22T11:35:16;5.00;;;1.47;;
2001;SDS011;1003;48.002;7.788;2023-12-22T11:37:43;3.33;;;1.37;;
2001;SDS011;1003;48.002;7.788;2023-12-22T11:40:11;2.03;;;1.23;;
2001;SDS011;1003;48.002;7.788;2023-12-22T11:42:40;2.27;;;1.40;;
2001;SDS011;1003;48.002;7.788;2023-12-22T11:45:13;4.72;;;1.45;;
2001;SDS011;1003;48.002;7.788;2023-12-22T11:47:41;3.83;;;1.63;;
2001;SDS011;1003;48.002;7.788;2023-12-22T11:50:09;3.20;;;1.30;;
2001;SDS011;1003;48.002;7.788;2023-12-22T11:52:37;1.70;;;1.27;;
2001;SDS011;1003;48.002;7.788;2023-12-22T11:55:04;2.93;;;1.20;;
2001;SDS011;1003;48.002;7.788;2023-12-22T11:57:32;2.40;;;1.43;;
2001;SDS011;1003;48.002;7.788;2023-12-22T12:00:03;3.70;;;1.10;;
2001;SDS011;1003;48.002;7.788;2023-12-22T12:02:35;2.80;;;1.17;;
2001;SDS011;1003;48.002;7.788;2023-12-22T12:05:04;2.30;;;0.90;;
2001;SDS011;1003;48.002;7.788;2023-12-22T12:07:37;2.00;;;0.80;;
2001;SDS011;1003;48.002;7.788;2023-12-22T12:10:13;3.53;;;1.10;;
2001;SDS011;1003;48.002;7.788;2023-12-22T12:13:16;2.57;;;0.83;;
2001;SDS011;1003;48.002;7.788;2023-12-22T12:15:50;1.23;;;0.70;;
2001;SDS011;1003;48.002;7.788;2023-12-22T12:18:22;3.40;;;1.07;;
2001;SDS011;1003;48.002;7.788;2023-12-22T12:20:49;1.53;;;0.77;;
2001;SDS011;1003;48.002;7.788;2023-12-22T12:23:16;0.83;;;0.70;;
2001;SDS011;1003;48.002;7.788;2023-12-22T12:25:44;0.63;;;0.50;;
2001;SDS011;1003;48.002;7.788;2023-12-22T12:28:11;1.80;;;0.70;;
2001;SDS011;1003;48.002;7.788;2023-12-22T12:30:39;2.13;;;0.83;;
2001;SDS011;1003;48.002;7.788;2023-12-22T12:33:07;2.07;;;0.60;;
2001;SDS011;1003;48.002;7.788;2023-12-22T12:35:37;2.10;;;1.07;;
2001;SDS011;1003;48.002;7.788;2023-12-22T12:38:05;1.20;;;0.67;;
2001;SDS011;1003;48.002;7.788;2023-12-22T12:40:32;1.33;;;0.60;;
2001;SDS011;1003;48.002;7.788;2023-12-22T12:43:05;1.00;;;0.90;;
2001;SDS011;1003;48.002;7.788;2023-12-22T12:45:32;1.53;;;0.67;;
2001;SDS011;1003;48.002;7.788;2023-12-22T12:48:00;0.83;;;0.40;;
2001;SDS011;1003;48.002;7.788;2023-12-22T12:50:28;0.80;;;0.40;;
2001;SDS011;1003;48.002;7.788;2023-12-22T12:52:57;0.20;;;0.20;;
2001;SDS011;1003;48.002;7.788;2023-12-22T12:55:25;0.83;;;0.60;;
2001;SDS011;1003;48.002;7.788;2023-12-22T12:57:53;0.40;;;0.40;;
2001;SDS011;1003;48.002;7.788;2023-12-22T13:00:24;0.47;;;0.33;;
2001;SDS011;1003;48.002;7.788;2023-12-22T13:02:51;0.73;;;0.43;;
2001;SDS011;1003;48.002;7.788;2023-12-22T13:05:21;0.73;;;0.57;;
2001;SDS011;1003;48.002;7.788;2023-12-22T13:07:49;1.13;;;0.73;;
2001;SDS011;1003;48.002;7.788;2023-12-22T13:10:21;0.40;;;0.40;;
2001;SDS011;1003;48.002;7.788;2023-12-22T13:12:48;1.10;;;0.40;;
2001;SDS011;1003;48.002;7.788;2023-12-22T13:15:19;0.40;;;0.40;;
2001;SDS011;1003;48.002;7.788;2023-12-22T13:17:46;0.30;;;0.30;;
2001;SDS011;1003;48.002;7.788;2023-12-22T13:20:13;0.20;;;0.20;;
2001;SDS011;1003;48.002;7.788;2023-12-22T13:22:41;0.37;;;0.30;;
2001;SDS011;1003;48.002;7.788;2023-12-22T13:25:09;1.03;;;0.50;;
2001;SDS011;1003;48.002;7.788;2023-12-22T13:27:47;1.20;;;0.57;;
2001;SDS011;1003;48.002;7.788;2023-12-22T13:30:31;0.90;;;0.50;;
2001;SDS011;1003;48.002;7.788;2023-12-22T13:32:59;0.33;;;0.33;;
2001;SDS011;1003;48.002;7.788;2023-12-22T13:35:26;1.30;;;0.53;;
2001;SDS011;1003;48.002;7.788;2023-12-22T13:37:53;1.17;;;0.50;;
2001;SDS011;1003;48.002;7.788;2023-12-22T13:40:21;0.73;;;0.40;;
2001;SDS011;1003;48.002;7.788;2023-12-22T13:42:54;0.97;;;0.50;;
2001;SDS011;1003;48.002;7.788;2023-12-22T13:45:23;1.33;;;0.70;;
2001;SDS011;1003;48.002;7.788;2023-12-22T13:47:50;0.50;;;0.50;;
2001;SDS011;1003;48.002;7.788;2023-12-22T13:50:18;0.60;;;0.50;;
2001;SDS011;1003;48.002;7.788;2023-12-22T13:52:48;0.90;;;0.67;;
2001;SDS011;1003;48.002;7.788;2023-12-22T13:55:16;0.40;;;0.40;;
2001;SDS011;1003;48.002;7.788;2023-12-22T13:57:45;0.70;;;0.60;;
2001;SDS011;1003;48.002;7.788;2023-12-22T14:00:27;2.17;;;1.30;;
2001;SDS011;1003;48.002;7.788;2023-12-22T14:02:56;0.90;;;0.70;;
2001;SDS011;1003;48.002;7.788;2023-12-22T14:05:23;0.73;;;0.50;;
2001;SDS011;1003;48.002;7.788;2023-12-22T14:07:51;0.73;;;0.73;;
2001;SDS011;1003;48.002;7.788;2023-12-22T14:10:18;1.50;;;0.47;;
2001;SDS011;1003;48.002;7.788;2023-12-22T14:12:45;2.03;;;0.60;;
2001;SDS011;1003;48.002;7.788;2023-12-22T14:15:12;0.30;;;0.30;;
2001;SDS011;1003;48.002;7.788;2023-12-22T14:17:40;1.47;;;0.50;;
2001;SDS011;1003;48.002;7.788;2023-12-22T14:20:09;0.30;;;0.30;;
2001;SDS011;1003;48.002;7.788;2023-12-22T14:22:36;1.03;;;0.23;;
2001;SDS011;1003;48.002;7.788;2023-12-22T14:25:04;0.47;;;0.47;;
2001;SDS011;1003;48.002;7.788;2023-12-22T14:27:32;0.30;;;0.30;;
2001;SDS011;1003;48.002;7.788;2023-12-22T14:29:59;1.37;;;0.50;;
2001;SDS011;1003;48.002;7.788;2023-12-22T14:32:26;1.47;;;0.50;;
2001;SDS011;1003;48.002;7.788;2023-12-22T14:34:56;0.93;;;0.60;;
2001;SDS011;1003;48.002;7.788;2023-12-22T14:37:23;0.87;;;0.50;;
2001;SDS011;1003;48.002;7.788;2023-12-22T14:39:50;0.80;;;0.50;;
2001;SDS011;1003;48.002;7.788;2023-12-22T14:42:17;1.20;;;0.60;;
2001;SDS011;1003;48.002;7.788;2023-12-22T14:44:44;0.40;;;0.40;;
2001;SDS011;1003;48.002;7.788;2023-12-22T14:47:11;0.83;;;0.50;;
2001;SDS011;1003;48.002;7.788;2023-12-22T14:49:37;0.77;;;0.57;;
2001;SDS011;1003;48.002;7.788;2023-12-22T14:52:06;1.47;;;0.60;;
2001;SDS011;1003;48.002;7.788;2023-12-22T14:54:33;0.43;;;0.40;;
2001;SDS011;1003;48.002;7.788;2023-12-22T14:57:00;0.53;;;0.47;;
2001;SDS011;1003;48.002;7.788;2023-12-22T14:59:27;0.70;;;0.53;;
2001;SDS011;1003;48.002;7.788;2023-12-22T15:01:54;1.47;;;0.70;;
2001;SDS011;1003;48.002;7.788;2023-12-22T15:04:21;0.60;;;0.60;;
2001;SDS011;1003;48.002;7.788;2023-12-22T15:06:49;1.80;;;0.50;;
2001;SDS011;1003;48.002;7.788;2023-12-22T15:09:17;1.80;;;0.50;;
2001;SDS011;1003;48.002;7.788;2023-12-22T15:11:45;1.23;;;0.70;;
2001;SDS011;1003;48.002;7.788;2023-12-22T15:14:12;0.70;;;0.70;;
2001;SDS011;1003;48.002;7.788;2023-12-22T15:16:40;0.70;;;0.50;;
2001;SDS011;1003;48.002;7.788;2023-12-22T15:19:09;0.90;;;0.60;;
2001;SDS011;1003;48.002;7.788;2023-12-22T15:21:37;0.40;;;0.40;;